Time;durP1;ratioP1;P1;durP2;ratioP2;P2;SDS_P1;SDS_P2;PMS_P1;PMS_P2;Temp;Humidity;BMP_temperature;BMP_pressure;BME280_temperature;BME280_humidity;BME280_pressure;Samples;Min_cycle;Max_cycle;Signal;HPM_P1;HPM_P2
2021/04/04 00:00:18;;;;;;;9.57;6.82;;;;;;;21.68;25.63;96172.66;5068909;28;20530;-54
2021/04/04 00:02:44;;;;;;;8.63;6.63;;;;;;;21.68;25.29;96173.47;5068356;28;20041;-56
2021/04/04 00:05:10;;;;;;;9.68;7.07;;;;;;;21.69;25.67;96174.28;5061055;28;20079;-54
2021/04/04 00:07:35;;;;;;;8.88;6.28;;;;;;;21.70;25.45;96176.72;5048727;28;20049;-53
2021/04/04 00:10:03;;;;;;;7.68;5.78;;;;;;;21.71;25.41;96170.16;5048961;28;20151;-54
2021/04/04 00:12:28;;;;;;;8.13;6.13;;;;;;;21.71;25.23;96178.34;5053924;28;20048;-54
2021/04/04 00:14:54;;;;;;;8.57;5.80;;;;;;;21.72;25.56;96184.59;5067990;28;20507;-53
2021/04/04 00:17:19;;;;;;;9.50;6.00;;;;;;;21.73;25.45;96181.59;5069272;28;20149;-54
2021/04/04 00:19:45;;;;;;;8.25;6.00;;;;;;;21.73;25.44;96181.59;5068121;28;20036;-53
2021/04/04 00:22:11;;;;;;;6.70;5.40;;;;;;;21.74;25.13;96177.75;5068057;28;20207;-54
2021/04/04 00:24:37;;;;;;;6.85;5.25;;;;;;;21.74;25.21;96179.66;5067968;28;20507;-53
2021/04/04 00:27:03;;;;;;;6.80;5.47;;;;;;;21.74;25.07;96182.38;5068295;28;20094;-54
2021/04/04 00:29:28;;;;;;;7.60;5.75;;;;;;;21.75;25.39;96184.00;5066177;28;20070;-52
2021/04/04 00:31:54;;;;;;;7.00;5.13;;;;;;;21.75;25.24;96181.25;5067819;28;20040;-53
2021/04/04 00:34:19;;;;;;;7.05;4.80;;;;;;;21.74;25.01;96185.91;5068897;28;20086;-53
2021/04/04 00:36:45;;;;;;;5.95;4.55;;;;;;;21.75;25.32;96184.00;5066912;28;20040;-53
2021/04/04 00:39:11;;;;;;;7.18;4.45;;;;;;;21.76;25.24;96193.81;5067898;28;20083;-54
2021/04/04 00:41:37;;;;;;;7.95;5.07;;;;;;;21.75;25.08;96195.72;5067785;28;20578;-53
2021/04/04 00:44:03;;;;;;;5.97;4.80;;;;;;;21.74;25.12;96194.09;5067029;28;20135;-53
2021/04/04 00:46:28;;;;;;;6.13;5.00;;;;;;;21.75;25.34;96195.72;5067446;28;20048;-53
2021/04/04 00:48:54;;;;;;;6.03;4.40;;;;;;;21.75;25.11;96194.91;5067674;28;20428;-52
2021/04/04 00:51:20;;;;;;;6.28;4.70;;;;;;;21.75;25.44;96186.72;5068859;28;20129;-54
2021/04/04 00:53:45;;;;;;;4.65;3.88;;;;;;;21.75;25.22;96189.44;5067045;28;20087;-54
2021/04/04 00:56:12;;;;;;;5.68;4.05;;;;;;;21.73;24.92;96187.03;5067530;28;20973;-53
2021/04/04 00:58:37;;;;;;;5.10;4.30;;;;;;;21.71;25.17;96188.41;5066030;28;20055;-55
2021/04/04 01:01:03;;;;;;;5.85;3.95;;;;;;;21.70;25.11;96187.63;5066703;28;20068;-56
2021/04/04 01:03:29;;;;;;;4.70;3.70;;;;;;;21.69;24.98;96187.91;5065596;28;20079;-55
2021/04/04 01:05:55;;;;;;;6.43;3.85;;;;;;;21.68;24.91;96187.09;5067271;28;20059;-56
2021/04/04 01:08:20;;;;;;;5.20;3.95;;;;;;;21.70;25.02;96187.63;5067595;28;20056;-55
2021/04/04 01:10:46;;;;;;;5.88;4.10;;;;;;;21.69;25.20;96182.44;5064623;28;20068;-57
2021/04/04 01:13:18;;;;;;;4.40;3.75;;;;;;;21.70;25.14;96186.81;5065264;28;20581;-56
2021/04/04 01:16:03;;;;;;;7.07;3.60;;;;;;;21.69;25.17;96196.91;5066509;28;20542;-56
2021/04/04 01:18:34;;;;;;;4.38;3.40;;;;;;;21.69;24.83;96193.34;5065723;28;20052;-55
2021/04/04 01:21:30;;;;;;;4.85;3.60;;;;;;;21.65;24.98;96190.44;5065215;28;20060;-56
2021/04/04 01:24:15;;;;;;;4.40;3.55;;;;;;;21.64;24.65;96200.50;5065001;28;20122;-56
2021/04/04 01:27:25;;;;;;;3.75;2.95;;;;;;;21.62;25.04;96197.25;5066917;28;20102;-56
2021/04/04 01:29:51;;;;;;;3.38;3.05;;;;;;;21.61;25.11;96189.41;5043300;28;20052;-56
2021/04/04 01:32:17;;;;;;;4.05;3.65;;;;;;;21.61;25.04;96194.84;5066801;28;20156;-56
2021/04/04 01:34:43;;;;;;;5.20;3.28;;;;;;;21.58;25.00;96196.22;5065634;28;20137;-56
2021/04/04 01:37:10;;;;;;;3.42;3.13;;;;;;;21.57;24.94;96189.16;5065238;28;20040;-56
2021/04/04 01:40:05;;;;;;;2.90;2.60;;;;;;;21.55;24.90;96190.56;5048191;28;20056;-55
2021/04/04 01:42:31;;;;;;;3.15;2.85;;;;;;;21.55;25.06;96187.84;5048797;28;20466;-56
2021/04/04 01:44:56;;;;;;;3.20;2.72;;;;;;;21.54;24.75;96189.75;5048064;28;20095;-56
2021/04/04 01:47:22;;;;;;;2.90;2.60;;;;;;;21.52;24.69;96188.41;5064306;28;20095;-56
2021/04/04 01:49:48;;;;;;;3.20;2.55;;;;;;;21.49;24.65;96192.56;5065677;28;20047;-56
2021/04/04 01:52:14;;;;;;;3.05;2.40;;;;;;;21.50;24.69;96190.63;5065960;28;20113;-56
2021/04/04 01:54:40;;;;;;;3.08;2.58;;;;;;;21.49;24.97;96197.19;5064528;28;20462;-56
2021/04/04 01:57:06;;;;;;;2.90;2.42;;;;;;;21.47;24.56;96207.59;5064580;28;20055;-55
2021/04/04 01:59:34;;;;;;;2.78;2.50;;;;;;;21.45;24.64;96202.41;5064267;28;20056;-55
2021/04/04 02:02:00;;;;;;;3.72;2.60;;;;;;;21.45;24.69;96208.66;5065790;28;20201;-55
2021/04/04 02:04:25;;;;;;;2.67;2.30;;;;;;;21.44;24.56;96203.53;5064633;28;20567;-56
2021/04/04 02:06:51;;;;;;;2.58;2.15;;;;;;;21.40;24.67;96199.75;5067040;28;20928;-56
2021/04/04 02:09:17;;;;;;;2.55;2.35;;;;;;;21.40;24.68;96195.09;5067349;28;20040;-56
2021/04/04 02:11:43;;;;;;;2.10;1.90;;;;;;;21.40;24.61;96205.19;5081998;28;20091;-56
2021/04/04 02:14:14;;;;;;;2.47;2.28;;;;;;;21.38;24.76;96196.50;5065416;28;20051;-56
2021/04/04 02:16:41;;;;;;;2.55;2.13;;;;;;;21.37;24.71;96200.31;5066067;28;20051;-56
2021/04/04 02:19:13;;;;;;;2.97;2.25;;;;;;;21.36;24.80;96198.72;5063259;28;20515;-55
2021/04/04 02:21:43;;;;;;;2.67;2.40;;;;;;;21.35;24.61;96199.78;5061283;28;20500;-56
2021/04/04 02:24:08;;;;;;;2.08;1.80;;;;;;;21.33;24.85;96200.09;5064960;28;20098;-56
2021/04/04 02:26:34;;;;;;;2.78;1.90;;;;;;;21.33;24.53;96208.25;5064817;28;20453;-55
2021/04/04 02:29:00;;;;;;;2.58;2.13;;;;;;;21.31;24.83;96196.84;5065810;28;20839;-56
2021/04/04 02:31:26;;;;;;;2.88;2.08;;;;;;;21.29;24.52;96198.25;5065850;28;20049;-56
2021/04/04 02:33:59;;;;;;;2.45;2.22;;;;;;;21.26;24.69;96205.91;5078854;28;20135;-55
2021/04/04 02:36:28;;;;;;;2.13;1.85;;;;;;;21.26;24.74;96210.53;5064378;28;20178;-55
2021/04/04 02:39:08;;;;;;;2.10;1.80;;;;;;;21.22;24.62;96206.78;5063913;28;20056;-56
2021/04/04 02:41:34;;;;;;;2.63;1.90;;;;;;;21.21;24.53;96202.44;5064670;28;20044;-56
2021/04/04 02:44:00;;;;;;;1.95;1.45;;;;;;;21.20;24.82;96203.53;5047679;28;20048;-55
2021/04/04 02:46:25;;;;;;;1.90;1.55;;;;;;;21.18;24.58;96195.66;5065222;28;20507;-55
2021/04/04 02:48:59;;;;;;;1.80;1.70;;;;;;;21.16;24.57;96189.69;5064398;28;20076;-53
2021/04/04 02:51:40;;;;;;;2.15;1.95;;;;;;;21.14;24.84;96191.88;5048159;28;20048;-55
2021/04/04 02:54:07;;;;;;;1.92;1.63;;;;;;;21.13;24.51;96194.94;5047079;28;20114;-55
2021/04/04 02:56:38;;;;;;;1.45;1.35;;;;;;;21.10;24.84;96192.78;5065625;28;20048;-55
2021/04/04 02:59:04;;;;;;;1.75;1.63;;;;;;;21.09;24.80;96193.88;5048500;28;20407;-55
2021/04/04 03:01:30;;;;;;;1.73;1.60;;;;;;;21.09;24.60;96196.59;5068851;28;20055;-55
2021/04/04 03:03:56;;;;;;;1.95;1.55;;;;;;;21.07;24.53;96202.34;5085041;28;20423;-54
2021/04/04 03:06:22;;;;;;;1.90;1.80;;;;;;;21.05;24.46;96199.91;5070146;28;20055;-56
2021/04/04 03:08:48;;;;;;;1.52;1.30;;;;;;;21.04;24.63;96198.28;5068942;28;20539;-55
2021/04/04 03:11:15;;;;;;;1.60;1.50;;;;;;;21.04;24.49;96201.00;5069048;28;20106;-55
2021/04/04 03:13:43;;;;;;;1.30;1.20;;;;;;;21.03;24.53;96202.09;5067170;28;20285;-55
2021/04/04 03:16:09;;;;;;;1.92;1.73;;;;;;;21.02;24.48;96207.81;5068438;28;20064;-56
2021/04/04 03:18:34;;;;;;;1.65;1.55;;;;;;;20.99;24.53;96209.22;5067795;28;20056;-53
2021/04/04 03:21:03;;;;;;;2.08;1.88;;;;;;;20.97;24.41;96205.97;5069391;28;20048;-55
2021/04/04 03:23:29;;;;;;;1.67;1.40;;;;;;;20.97;24.75;96208.72;5073595;28;20056;-52
2021/04/04 03:25:54;;;;;;;2.13;1.45;;;;;;;20.95;24.85;96212.81;5067901;28;20098;-55
2021/04/04 03:28:20;;;;;;;1.27;1.17;;;;;;;20.94;24.78;96208.50;5054715;28;20503;-53
2021/04/04 03:30:46;;;;;;;1.55;1.40;;;;;;;20.91;24.63;96206.34;5067729;28;20202;-54
2021/04/04 03:33:16;;;;;;;2.55;1.48;;;;;;;20.90;24.80;96215.63;5067914;28;20137;-55
2021/04/04 03:35:43;;;;;;;1.67;1.50;;;;;;;20.87;24.47;96225.16;5068921;28;20431;-54
2021/04/04 03:38:09;;;;;;;1.65;1.42;;;;;;;20.85;24.40;96225.47;5069047;28;20572;-54
2021/04/04 03:40:35;;;;;;;1.50;1.40;;;;;;;20.83;24.59;96219.50;5069138;28;20051;-53
2021/04/04 03:43:03;;;;;;;1.42;1.33;;;;;;;20.81;24.31;96218.97;5068226;28;20060;-54
2021/04/04 03:45:29;;;;;;;3.00;1.65;;;;;;;20.80;24.54;96220.06;5084071;28;20056;-53
2021/04/04 03:47:54;;;;;;;1.52;1.40;;;;;;;20.77;24.48;96220.66;5067425;28;20055;-53
2021/04/04 03:50:20;;;;;;;1.67;1.58;;;;;;;20.76;24.72;96226.38;5068426;28;20597;-53
2021/04/04 03:52:46;;;;;;;1.70;1.40;;;;;;;20.74;24.63;96226.66;5066620;28;20127;-54
2021/04/04 03:55:12;;;;;;;1.40;1.30;;;;;;;20.71;24.65;96221.81;5067022;28;20044;-55
2021/04/04 03:57:38;;;;;;;1.42;1.33;;;;;;;20.70;24.75;96222.09;5068875;28;20518;-53
2021/04/04 04:00:05;;;;;;;1.45;1.35;;;;;;;20.68;24.56;96221.56;5083877;28;20048;-52
2021/04/04 04:02:31;;;;;;;2.33;1.30;;;;;;;20.65;24.32;96223.75;5066654;28;20059;-53
2021/04/04 04:04:56;;;;;;;1.50;1.30;;;;;;;20.64;24.73;96222.16;5068463;28;20049;-52
2021/04/04 04:07:22;;;;;;;1.40;1.30;;;;;;;20.62;24.52;96220.78;5047225;28;20051;-55
2021/04/04 04:09:47;;;;;;;1.30;1.20;;;;;;;20.60;24.58;96223.81;5046898;28;20053;-55
2021/04/04 04:12:13;;;;;;;1.20;1.10;;;;;;;20.59;24.61;96229.56;5046943;28;20141;-54
2021/04/04 04:14:39;;;;;;;1.25;1.15;;;;;;;20.57;24.43;96223.56;5047463;28;20524;-54
2021/04/04 04:17:05;;;;;;;1.40;1.30;;;;;;;20.55;24.54;96234.72;5030396;28;20095;-55
2021/04/04 04:19:30;;;;;;;1.20;1.10;;;;;;;20.53;24.48;96234.19;5046733;28;20060;-53
2021/04/04 04:21:56;;;;;;;0.95;0.95;;;;;;;20.51;24.61;96243.75;5046871;28;20552;-54
2021/04/04 04:24:22;;;;;;;1.33;1.20;;;;;;;20.48;24.46;96245.13;5048544;28;20048;-52
2021/04/04 04:26:48;;;;;;;0.90;0.90;;;;;;;20.47;24.85;96250.84;5054583;28;20514;-54
2021/04/04 04:29:14;;;;;;;1.27;1.17;;;;;;;20.46;24.62;96252.78;5083776;28;20123;-54
2021/04/04 04:31:45;;;;;;;1.30;1.20;;;;;;;20.42;24.89;96240.84;5067130;28;20052;-54
2021/04/04 04:34:10;;;;;;;1.20;1.10;;;;;;;20.41;24.75;96248.19;5066675;28;20067;-57
2021/04/04 04:36:37;;;;;;;1.50;1.40;;;;;;;20.40;24.62;96243.03;5067722;28;20032;-54
2021/04/04 04:39:04;;;;;;;1.00;1.00;;;;;;;20.37;24.69;96244.41;5082949;28;20140;-53
2021/04/04 04:41:33;;;;;;;1.23;1.17;;;;;;;20.36;24.44;96248.22;5067671;28;20078;-53
2021/04/04 04:44:00;;;;;;;1.05;1.05;;;;;;;20.34;24.49;96246.88;5066151;28;20048;-55
2021/04/04 04:46:26;;;;;;;1.05;1.05;;;;;;;20.33;24.56;96242.53;5067677;28;20051;-53
2021/04/04 04:48:52;;;;;;;1.88;1.40;;;;;;;20.32;24.60;96235.47;5083911;28;20084;-53
2021/04/04 04:51:21;;;;;;;0.90;0.90;;;;;;;20.29;24.66;96241.47;5083377;28;20110;-53
2021/04/04 04:53:48;;;;;;;1.10;1.02;;;;;;;20.28;24.90;96237.16;5067303;28;20431;-54
2021/04/04 04:56:14;;;;;;;1.67;1.20;;;;;;;20.27;24.87;96249.09;5045381;28;20064;-53
2021/04/04 04:58:39;;;;;;;1.50;1.40;;;;;;;20.24;24.77;96242.34;5047647;28;20057;-53
2021/04/04 05:01:10;;;;;;;1.25;1.20;;;;;;;20.22;24.45;96245.34;5046050;28;20077;-55
2021/04/04 05:03:36;;;;;;;1.33;1.23;;;;;;;20.21;24.46;96254.59;5045981;28;20126;-56
2021/04/04 05:06:02;;;;;;;1.38;1.27;;;;;;;20.18;24.68;96247.03;5045837;28;20532;-55
2021/04/04 05:08:29;;;;;;;1.10;1.10;;;;;;;20.17;24.46;96250.81;5028582;28;20115;-55
2021/04/04 05:10:55;;;;;;;0.98;0.98;;;;;;;20.16;24.81;96249.22;5045615;28;20053;-52
2021/04/04 05:13:21;;;;;;;0.90;0.90;;;;;;;20.15;24.75;96255.75;5046736;28;20049;-55
2021/04/04 05:15:47;;;;;;;1.13;1.13;;;;;;;20.12;24.45;96250.88;5029582;28;20143;-53
2021/04/04 05:18:13;;;;;;;0.80;0.80;;;;;;;20.10;24.91;96260.38;5012350;28;20420;-53
2021/04/04 05:20:38;;;;;;;1.50;0.90;;;;;;;20.07;24.61;96261.78;5045970;28;20135;-52
2021/04/04 05:23:04;;;;;;;1.33;1.23;;;;;;;20.05;24.49;96259.34;5044623;28;20057;-52
2021/04/04 05:25:30;;;;;;;1.33;1.23;;;;;;;20.04;24.73;96263.16;5045787;28;20067;-54
2021/04/04 05:27:59;;;;;;;0.90;0.88;;;;;;;20.03;24.78;96266.16;5045564;28;20048;-53
2021/04/04 05:30:25;;;;;;;1.73;0.85;;;;;;;20.02;24.67;96267.25;5061590;28;20040;-53
2021/04/04 05:32:51;;;;;;;0.93;0.93;;;;;;;20.00;24.54;96272.16;5059738;28;20056;-51
2021/04/04 05:35:18;;;;;;;0.98;0.98;;;;;;;19.98;24.58;96272.44;5066866;28;20511;-53
2021/04/04 05:37:44;;;;;;;1.38;1.10;;;;;;;19.97;24.75;96283.59;5065981;28;20048;-54
2021/04/04 05:40:23;;;;;;;1.00;1.00;;;;;;;19.93;24.70;96279.81;5066024;28;20067;-51
2021/04/04 05:42:56;;;;;;;0.95;0.95;;;;;;;19.91;24.86;96271.97;5067078;28;20044;-51
2021/04/04 05:45:35;;;;;;;1.20;1.10;;;;;;;19.89;24.70;96284.19;5066604;28;20060;-56
2021/04/04 05:48:41;;;;;;;2.13;1.50;;;;;;;19.87;24.83;96289.94;5065843;28;20059;-52
2021/04/04 05:51:16;;;;;;;1.60;1.50;;;;;;;19.84;24.57;96291.28;5065582;28;20090;-54
2021/04/04 05:53:45;;;;;;;;;;;;;;;19.81;25.01;96293.78;5066462;28;20515;-56
2021/04/04 05:56:33;;;;;;;1.73;1.60;;;;;;;19.77;24.72;96285.34;5065837;28;19928;-53
2021/04/04 05:59:27;;;;;;;2.33;1.60;;;;;;;19.74;24.93;96294.06;5051107;28;20052;-53
2021/04/04 06:02:02;;;;;;;1.70;1.60;;;;;;;19.73;25.08;96297.06;5031389;28;20048;-56
2021/04/04 06:04:40;;;;;;;4.13;1.70;;;;;;;19.70;25.23;96306.56;5045762;28;20052;-56
2021/04/04 06:07:50;;;;;;;3.35;1.95;;;;;;;19.68;24.91;96311.47;5044546;28;20512;-55
2021/04/04 06:10:46;;;;;;;2.78;1.67;;;;;;;19.68;25.26;96313.34;5030739;28;20136;-55
2021/04/04 06:13:23;;;;;;;2.60;1.70;;;;;;;19.67;25.52;96301.69;5046090;28;20716;-53
2021/04/04 06:16:17;;;;;;;10.00;8.82;;;;;;;19.66;25.63;96308.22;5029721;28;20084;-54
2021/04/04 06:18:53;;;;;;;6.28;5.38;;;;;;;19.68;25.41;96311.47;5064139;28;20210;-53
2021/04/04 06:21:23;;;;;;;6.18;4.70;;;;;;;19.70;25.67;96312.00;5062210;28;20059;-52
2021/04/04 06:23:51;;;;;;;4.60;3.75;;;;;;;19.74;25.67;96318.50;5065078;28;20048;-52
2021/04/04 06:26:43;;;;;;;4.90;4.35;;;;;;;19.78;25.57;96316.06;5066427;28;20550;-53
2021/04/04 06:29:19;;;;;;;4.53;3.55;;;;;;;19.81;25.38;96319.03;5064465;28;20060;-55
2021/04/04 06:32:02;;;;;;;3.53;3.22;;;;;;;19.84;25.55;96321.19;5063730;28;20052;-54
2021/04/04 06:34:40;;;;;;;3.50;3.00;;;;;;;19.90;25.12;96327.41;5063647;28;20852;-55
2021/04/04 06:37:15;;;;;;;3.42;3.10;;;;;;;19.96;25.50;96322.75;5063323;28;20140;-55
2021/04/04 06:39:58;;;;;;;3.40;3.10;;;;;;;20.03;25.16;96325.97;5064365;28;20507;-54
2021/04/04 06:42:33;;;;;;;3.58;3.20;;;;;;;20.10;25.40;96331.94;5045602;28;20044;-57
2021/04/04 06:45:44;;;;;;;4.90;3.22;;;;;;;20.17;25.25;96335.13;5054028;28;20059;-53
2021/04/04 06:48:20;;;;;;;3.20;2.90;;;;;;;20.27;25.04;96328.81;5038489;28;20043;-52
2021/04/04 06:50:52;;;;;;;3.85;3.55;;;;;;;20.37;24.96;96336.91;5043866;28;20097;-53
2021/04/04 06:53:36;;;;;;;4.47;3.10;;;;;;;20.47;25.05;96341.44;5033398;28;20135;-54
2021/04/04 06:56:24;;;;;;;3.22;2.80;;;;;;;20.56;24.98;96331.59;5065206;28;20083;-51
2021/04/04 06:59:15;;;;;;;3.60;2.90;;;;;;;20.67;24.63;96336.97;5065235;28;20037;-54
2021/04/04 07:01:57;;;;;;;2.85;2.63;;;;;;;20.76;24.71;96336.06;5064242;28;20080;-53
2021/04/04 07:04:45;;;;;;;2.70;2.50;;;;;;;20.87;24.58;96336.78;5064177;28;20086;-53
2021/04/04 07:07:24;;;;;;;2.75;2.50;;;;;;;20.97;24.60;96333.97;5065648;28;20451;-51
2021/04/04 07:10:17;;;;;;;3.15;2.40;;;;;;;21.07;24.30;96330.31;5065609;28;20042;-54
2021/04/04 07:13:20;;;;;;;3.33;2.38;;;;;;;21.18;24.56;96331.84;5063719;28;20044;-53
2021/04/04 07:16:23;;;;;;;3.20;2.30;;;;;;;21.30;24.26;96325.19;5063947;28;20080;-52
2021/04/04 07:19:22;;;;;;;3.97;2.58;;;;;;;21.40;24.11;96334.06;5060329;28;20581;-53
2021/04/04 07:22:22;;;;;;;2.22;2.03;;;;;;;21.52;24.34;96338.31;5046231;28;20520;-54
2021/04/04 07:25:00;;;;;;;3.03;2.10;;;;;;;21.62;23.96;96341.72;5017220;28;20052;-55
2021/04/04 07:27:44;;;;;;;2.38;2.17;;;;;;;21.74;24.11;96344.03;5061173;28;20044;-54
2021/04/04 07:30:35;;;;;;;4.00;2.20;;;;;;;21.85;24.04;96344.72;5064659;28;20458;-56
2021/04/04 07:33:26;;;;;;;2.00;1.90;;;;;;;21.96;23.80;96342.66;5064867;28;20063;-55
2021/04/04 07:36:04;;;;;;;2.13;2.03;;;;;;;22.07;23.94;96341.44;5050451;28;20056;-56
2021/04/04 07:38:45;;;;;;;2.70;2.10;;;;;;;22.15;23.60;96343.50;5065145;28;20801;-56
2021/04/04 07:41:16;;;;;;;1.88;1.70;;;;;;;22.24;23.44;96344.47;5064140;28;20063;-56
2021/04/04 07:43:59;;;;;;;1.73;1.63;;;;;;;22.32;23.40;96350.34;5080665;28;20079;-56
2021/04/04 07:47:02;;;;;;;2.20;2.00;;;;;;;22.41;23.31;96351.31;5057442;28;20762;-56
2021/04/04 07:49:36;;;;;;;2.20;2.05;;;;;;;22.50;23.46;96356.91;5066040;28;20167;-56
2021/04/04 07:52:05;;;;;;;3.70;2.10;;;;;;;22.55;23.13;96352.19;5067283;28;20530;-55
2021/04/04 07:54:56;;;;;;;1.80;1.70;;;;;;;22.61;23.01;96350.19;5066935;28;20079;-57
2021/04/04 07:57:26;;;;;;;3.10;1.67;;;;;;;22.67;23.03;96349.81;5068318;28;20476;-55
2021/04/04 07:59:55;;;;;;;2.22;1.75;;;;;;;22.77;23.07;96356.22;5068232;28;20140;-57
2021/04/04 08:02:35;;;;;;;4.45;2.58;;;;;;;22.79;22.71;96352.06;5051565;28;20098;-55
2021/04/04 08:05:09;;;;;;;2.92;2.28;;;;;;;22.83;22.57;96355.03;5066847;28;20052;-55
2021/04/04 08:07:53;;;;;;;10.02;1.70;;;;;;;22.87;22.47;96350.59;5067895;28;20457;-55
2021/04/04 08:10:28;;;;;;;4.05;2.10;;;;;;;22.93;22.29;96349.38;5068016;28;20619;-55
2021/04/04 08:13:21;;;;;;;8.98;3.47;;;;;;;22.98;22.38;96351.22;5068065;28;20535;-56
2021/04/04 08:16:13;;;;;;;6.28;2.72;;;;;;;23.03;22.43;96353.91;5066358;28;20500;-56
2021/04/04 08:18:38;;;;;;;5.22;2.58;;;;;;;23.09;22.28;96349.97;5052779;28;20093;-55
2021/04/04 08:21:07;;;;;;;4.45;2.28;;;;;;;23.14;22.43;96346.31;5049726;28;20052;-56
2021/04/04 08:23:45;;;;;;;4.90;2.30;;;;;;;23.17;22.15;96345.72;5079170;28;20508;-55
2021/04/04 08:26:33;;;;;;;8.35;2.50;;;;;;;23.22;22.00;96345.63;5082597;28;20477;-56
2021/04/04 08:29:06;;;;;;;5.78;2.42;;;;;;;23.27;22.04;96342.78;5065880;28;20048;-55
2021/04/04 08:31:35;;;;;;;6.25;3.40;;;;;;;23.30;22.00;96347.66;5068187;28;20056;-56
2021/04/04 08:34:17;;;;;;;5.78;2.90;;;;;;;23.33;21.97;96352.50;5065946;28;20546;-55
2021/04/04 08:36:46;;;;;;;3.70;2.67;;;;;;;23.37;22.02;96353.53;5067860;28;20048;-56
2021/04/04 08:39:12;;;;;;;4.50;2.83;;;;;;;23.40;21.88;96350.19;5067029;28;20281;-56
2021/04/04 08:41:38;;;;;;;4.20;3.20;;;;;;;23.43;21.78;96352.31;5066948;28;20399;-55
2021/04/04 08:44:14;;;;;;;6.15;3.15;;;;;;;23.45;21.57;96352.84;5032961;28;20056;-56
2021/04/04 08:46:47;;;;;;;5.15;2.63;;;;;;;23.48;21.62;96344.00;5066850;28;20086;-56
2021/04/04 08:49:14;;;;;;;4.77;2.83;;;;;;;23.52;21.57;96349.69;5066326;28;20536;-56
2021/04/04 08:51:41;;;;;;;5.22;2.95;;;;;;;23.53;21.61;96350.50;5065992;28;20554;-55
2021/04/04 08:54:12;;;;;;;4.75;2.70;;;;;;;23.55;21.44;96354.56;5049188;28;20040;-56
2021/04/04 08:56:38;;;;;;;4.75;2.58;;;;;;;23.56;21.50;96355.38;5065848;28;20138;-56
2021/04/04 08:59:03;;;;;;;6.03;3.08;;;;;;;23.57;21.44;96354.25;5066007;28;20100;-56
2021/04/04 09:01:33;;;;;;;4.43;2.65;;;;;;;23.58;21.49;96348.47;5066021;28;20427;-55
2021/04/04 09:04:00;;;;;;;3.65;2.60;;;;;;;23.60;21.39;96351.72;5066939;28;20423;-56
2021/04/04 09:06:26;;;;;;;5.22;2.95;;;;;;;23.62;21.20;96356.88;5065625;28;20074;-55
2021/04/04 09:08:52;;;;;;;4.38;3.25;;;;;;;23.62;21.39;96351.41;5066498;28;20110;-56
2021/04/04 09:11:17;;;;;;;3.35;2.95;;;;;;;23.63;21.38;96347.56;5083286;28;20056;-56
2021/04/04 09:13:43;;;;;;;3.13;2.83;;;;;;;23.65;21.38;96348.06;5065428;28;20841;-54
2021/04/04 09:16:10;;;;;;;4.60;2.95;;;;;;;23.65;21.38;96354.34;5082274;28;20088;-54
2021/04/04 09:18:56;;;;;;;4.85;2.80;;;;;;;23.65;21.36;96348.06;5066544;28;20072;-53
2021/04/04 09:21:23;;;;;;;3.67;3.20;;;;;;;23.66;21.14;96349.69;5067602;28;20060;-56
2021/04/04 09:23:54;;;;;;;4.72;2.85;;;;;;;23.68;21.20;96344.75;5082363;28;20049;-53
2021/04/04 09:26:22;;;;;;;2.97;2.65;;;;;;;23.69;21.16;96349.06;5067419;28;20117;-53
2021/04/04 09:28:48;;;;;;;3.97;2.90;;;;;;;23.71;21.14;96346.03;5067024;28;20055;-54
2021/04/04 09:31:28;;;;;;;3.83;2.70;;;;;;;23.71;21.17;96357.78;5066256;28;20155;-53
2021/04/04 09:34:08;;;;;;;3.47;2.88;;;;;;;23.71;21.25;96348.78;5065842;28;20507;-53
2021/04/04 09:36:49;;;;;;;3.60;2.92;;;;;;;23.72;21.10;96353.13;5082520;28;20060;-56
2021/04/04 09:39:24;;;;;;;3.80;3.17;;;;;;;23.71;21.29;96344.13;5066764;28;20053;-56
2021/04/04 09:41:49;;;;;;;3.20;2.33;;;;;;;23.71;21.15;96346.84;5065797;28;20060;-56
2021/04/04 09:44:15;;;;;;;5.15;2.80;;;;;;;23.71;20.93;96346.84;5064757;28;20060;-55
2021/04/04 09:46:53;;;;;;;3.10;2.80;;;;;;;23.70;21.27;96345.25;5066846;28;20799;-55
2021/04/04 09:49:50;;;;;;;4.45;2.65;;;;;;;23.70;20.93;96333.47;5066194;28;20138;-54
2021/04/04 09:52:24;;;;;;;3.80;3.08;;;;;;;23.70;21.06;96331.56;5066713;28;20047;-56
2021/04/04 09:54:59;;;;;;;3.45;2.85;;;;;;;23.68;21.09;96334.59;5067401;28;20092;-57
2021/04/04 09:57:25;;;;;;;3.60;3.10;;;;;;;23.68;21.32;96331.06;5066514;28;20052;-55
2021/04/04 09:59:51;;;;;;;4.07;2.90;;;;;;;23.69;21.06;96332.66;5065623;28;20059;-55
2021/04/04 10:02:29;;;;;;;3.47;2.90;;;;;;;23.68;21.15;96325.59;5065117;28;20056;-56
2021/04/04 10:04:55;;;;;;;4.55;3.17;;;;;;;23.68;20.99;96331.06;5065957;28;20079;-56
2021/04/04 10:07:33;;;;;;;3.60;2.75;;;;;;;23.67;21.22;96321.22;5059347;28;20504;-54
2021/04/04 10:09:59;;;;;;;3.75;2.78;;;;;;;23.65;21.14;96321.53;5064208;28;20423;-54
2021/04/04 10:12:25;;;;;;;23.35;14.90;;;;;;;23.65;21.09;96326.19;5045611;28;20052;-55
2021/04/04 10:15:07;;;;;;;118.72;75.57;;;;;;;23.61;21.00;96320.53;5053265;28;20523;-55
2021/04/04 10:17:33;;;;;;;63.90;43.78;;;;;;;23.61;21.20;96319.72;5061990;28;20048;-55
2021/04/04 10:20:01;;;;;;;62.13;41.50;;;;;;;23.59;20.96;96324.66;5064657;28;20151;-53
2021/04/04 10:22:26;;;;;;;101.20;72.97;;;;;;;23.58;21.21;96321.13;5065657;28;20397;-54
2021/04/04 10:24:52;;;;;;;70.05;50.42;;;;;;;23.58;21.04;96325.81;5065364;28;20060;-56
2021/04/04 10:27:19;;;;;;;62.80;44.50;;;;;;;23.58;20.95;96329.34;5067064;28;20048;-53
2021/04/04 10:29:45;;;;;;;59.03;40.78;;;;;;;23.59;21.07;96328.25;5065245;28;20044;-54
2021/04/04 10:32:10;;;;;;;52.13;35.85;;;;;;;23.62;21.39;96324.88;5064951;28;20765;-53
2021/04/04 10:34:45;;;;;;;43.10;30.27;;;;;;;23.63;21.52;96321.00;5065164;28;20167;-54
2021/04/04 10:37:11;;;;;;;44.28;30.75;;;;;;;23.67;21.22;96315.75;5065971;28;20052;-56
2021/04/04 10:39:37;;;;;;;40.83;27.38;;;;;;;23.72;21.39;96323.03;5065276;28;20044;-55
2021/04/04 10:42:13;;;;;;;39.88;26.60;;;;;;;23.74;21.47;96324.38;5065880;28;20045;-56
2021/04/04 10:44:39;;;;;;;34.10;24.55;;;;;;;23.79;21.35;96320.75;5065846;28;20135;-57
2021/04/04 10:47:17;;;;;;;33.92;23.70;;;;;;;23.84;21.23;96317.88;5064049;28;20612;-54
2021/04/04 10:49:43;;;;;;;34.90;24.63;;;;;;;23.89;21.43;96314.25;5065085;28;20556;-56
2021/04/04 10:52:09;;;;;;;30.48;22.67;;;;;;;23.93;21.31;96307.88;5047479;28;20044;-57
2021/04/04 10:54:35;;;;;;;30.58;21.88;;;;;;;23.98;21.34;96310.47;5047178;28;20053;-56
2021/04/04 10:57:00;;;;;;;29.88;20.73;;;;;;;23.99;21.31;96303.91;5064145;28;20048;-55
2021/04/04 10:59:26;;;;;;;24.45;17.98;;;;;;;24.04;21.29;96308.44;5043622;28;20076;-56
2021/04/04 11:01:52;;;;;;;25.35;17.98;;;;;;;24.07;21.43;96307.81;5064724;28;20531;-56
2021/04/04 11:04:17;;;;;;;22.30;16.92;;;;;;;24.08;21.43;96307.50;5063505;28;20057;-56
2021/04/04 11:06:43;;;;;;;21.15;16.20;;;;;;;24.13;21.10;96306.56;5046318;28;20044;-56
2021/04/04 11:09:08;;;;;;;20.73;15.32;;;;;;;24.19;21.36;96305.34;5064571;28;20075;-56
2021/04/04 11:11:34;;;;;;;24.35;15.80;;;;;;;24.22;21.30;96304.75;5064515;28;20075;-57
2021/04/04 11:14:00;;;;;;;19.00;12.93;;;;;;;24.26;21.28;96304.91;5063738;28;20615;-56
2021/04/04 11:16:27;;;;;;;17.50;12.82;;;;;;;24.32;21.22;96311.88;5062864;28;20080;-56
2021/04/04 11:18:54;;;;;;;17.75;12.60;;;;;;;24.36;21.17;96307.41;5051681;28;20118;-57
2021/04/04 11:21:28;;;;;;;15.00;11.98;;;;;;;24.37;20.81;96303.56;5057438;28;20060;-56
2021/04/04 11:23:54;;;;;;;15.82;11.40;;;;;;;24.41;21.25;96293.63;5068039;28;20044;-56
2021/04/04 11:26:34;;;;;;;15.07;11.15;;;;;;;24.45;20.89;96297.34;5052303;28;20524;-55
2021/04/04 11:29:13;;;;;;;14.27;10.60;;;;;;;24.49;20.89;96292.06;5068289;28;20575;-55
2021/04/04 11:31:40;;;;;;;15.10;10.35;;;;;;;24.55;20.88;96295.50;5069072;28;20098;-56
2021/04/04 11:34:25;;;;;;;13.35;9.45;;;;;;;24.60;20.83;96284.44;5069034;28;20381;-56
2021/04/04 11:36:50;;;;;;;13.15;9.88;;;;;;;24.64;20.65;96291.72;5068491;28;20084;-56
2021/04/04 11:39:16;;;;;;;11.75;8.80;;;;;;;24.68;20.56;96289.97;5068329;28;20056;-56
2021/04/04 11:41:53;;;;;;;11.98;9.20;;;;;;;24.67;20.55;96271.91;5067453;28;20258;-56
2021/04/04 11:44:28;;;;;;;10.52;8.18;;;;;;;24.75;20.70;96278.56;5068499;28;20475;-56
2021/04/04 11:47:04;;;;;;;11.68;8.20;;;;;;;24.80;20.62;96274.88;5048679;28;20049;-57
2021/04/04 11:49:50;;;;;;;10.32;8.05;;;;;;;24.85;20.77;96266.53;5066071;28;20400;-56
2021/04/04 11:52:15;;;;;;;10.50;7.72;;;;;;;24.89;20.85;96267.53;5068191;28;20056;-56